Time;durP1;ratioP1;P1;durP2;ratioP2;P2;SDS_P1;SDS_P2;PMS_P1;PMS_P2;Temp;Humidity;BMP_temperature;BMP_pressure;BME280_temperature;BME280_humidity;BME280_pressure;Samples;Min_cycle;Max_cycle;Signal;HPM_P1;HPM_P2
2022/04/07 00:01:13;;;;;;;10.88;3.95;;;9.60;99.90;;;;;;5060909;28;20040;-54
2022/04/07 00:03:39;;;;;;;10.32;4.18;;;9.60;99.90;;;;;;5049971;28;20037;-55
2022/04/07 00:06:09;;;;;;;9.63;4.28;;;9.60;99.90;;;;;;5045580;28;20052;-53
2022/04/07 00:08:35;;;;;;;10.82;3.85;;;9.60;99.90;;;;;;5050094;28;20390;-54
2022/04/07 00:11:01;;;;;;;10.13;4.40;;;9.60;99.90;;;;;;5051307;28;20036;-52
2022/04/07 00:13:27;;;;;;;8.80;4.05;;;9.60;99.90;;;;;;5050955;28;20037;-52
2022/04/07 00:15:53;;;;;;;8.38;4.72;;;9.50;99.90;;;;;;5051411;28;20033;-54
2022/04/07 00:18:19;;;;;;;9.95;4.80;;;9.50;99.90;;;;;;5033269;28;20442;-54
2022/04/07 00:20:45;;;;;;;9.18;5.32;;;9.50;99.90;;;;;;5050794;28;20079;-54
2022/04/07 00:23:10;;;;;;;14.57;5.90;;;9.60;99.90;;;;;;5051326;28;20113;-54
2022/04/07 00:25:36;;;;;;;9.32;6.13;;;9.50;99.90;;;;;;5050849;28;20509;-55
2022/04/07 00:28:02;;;;;;;13.27;8.05;;;9.50;99.90;;;;;;5047796;28;20028;-52
2022/04/07 00:30:27;;;;;;;11.05;7.95;;;9.50;99.90;;;;;;5061394;28;20036;-55
2022/04/07 00:32:53;;;;;;;12.68;7.47;;;9.50;99.90;;;;;;5045475;28;20099;-52
2022/04/07 00:35:19;;;;;;;11.07;6.85;;;9.60;99.90;;;;;;5050965;28;20037;-55
2022/04/07 00:37:44;;;;;;;11.80;7.30;;;9.60;99.90;;;;;;5050523;28;20455;-53
2022/04/07 00:40:13;;;;;;;11.75;7.50;;;9.60;99.90;;;;;;5050957;28;20471;-52
2022/04/07 00:42:50;;;;;;;11.68;7.68;;;9.50;99.90;;;;;;5050070;28;20036;-52
2022/04/07 00:45:22;;;;;;;10.80;7.80;;;9.60;99.90;;;;;;5050880;28;20064;-51
2022/04/07 00:47:50;;;;;;;8.80;7.23;;;9.60;99.90;;;;;;5050006;28;20041;-52
2022/04/07 00:50:22;;;;;;;10.60;7.70;;;9.60;99.90;;;;;;5050684;28;20048;-55
2022/04/07 00:53:00;;;;;;;14.50;7.35;;;9.60;99.90;;;;;;5041112;28;20041;-56
2022/04/07 00:55:29;;;;;;;9.63;7.18;;;9.60;99.90;;;;;;5049178;28;20412;-53
2022/04/07 00:58:03;;;;;;;9.90;6.78;;;9.50;99.90;;;;;;5049517;28;20084;-56
2022/04/07 01:00:31;;;;;;;10.98;6.38;;;9.60;99.90;;;;;;5047164;28;20046;-54
2022/04/07 01:02:57;;;;;;;14.18;7.53;;;9.60;99.90;;;;;;5053617;28;20090;-56
2022/04/07 01:05:23;;;;;;;12.73;7.15;;;9.60;99.90;;;;;;5054204;28;20033;-56
2022/04/07 01:07:50;;;;;;;10.13;6.35;;;9.50;99.90;;;;;;5060481;28;20048;-56
2022/04/07 01:10:20;;;;;;;11.68;6.38;;;9.60;99.90;;;;;;5036876;28;20444;-56
2022/04/07 01:12:46;;;;;;;11.93;6.43;;;9.60;99.90;;;;;;5054261;28;20415;-57
2022/04/07 01:15:12;;;;;;;10.75;6.28;;;9.50;99.90;;;;;;5053904;28;20461;-55
2022/04/07 01:17:38;;;;;;;11.43;6.30;;;9.50;99.90;;;;;;5053783;28;20145;-56
2022/04/07 01:20:07;;;;;;;8.88;5.22;;;9.50;99.90;;;;;;5053600;28;20076;-56
2022/04/07 01:22:39;;;;;;;9.65;5.35;;;9.50;99.90;;;;;;5051724;28;20416;-54
2022/04/07 01:25:06;;;;;;;13.55;5.35;;;9.60;99.90;;;;;;5046239;28;20052;-54
2022/04/07 01:27:34;;;;;;;11.75;4.95;;;9.50;99.90;;;;;;5053486;28;20115;-51
2022/04/07 01:30:18;;;;;;;10.20;4.80;;;9.60;99.90;;;;;;5051320;28;20045;-51
2022/04/07 01:32:47;;;;;;;9.27;4.38;;;9.50;99.90;;;;;;5049121;28;20048;-54
2022/04/07 01:35:14;;;;;;;12.50;4.30;;;9.50;99.90;;;;;;5052684;28;20045;-55
2022/04/07 01:37:47;;;;;;;16.52;4.13;;;9.50;99.90;;;;;;5045981;28;20040;-54
2022/04/07 01:40:21;;;;;;;11.35;4.25;;;9.50;99.90;;;;;;5053493;28;20048;-54
2022/04/07 01:42:49;;;;;;;10.82;3.67;;;9.50;99.90;;;;;;5050952;28;20037;-56
2022/04/07 01:45:16;;;;;;;12.82;3.42;;;9.40;99.90;;;;;;5053410;28;20147;-54
2022/04/07 01:47:45;;;;;;;9.73;3.95;;;9.40;99.90;;;;;;5046190;28;20036;-54
2022/04/07 01:50:11;;;;;;;7.47;3.00;;;9.40;99.90;;;;;;5055320;28;20079;-52
2022/04/07 01:52:41;;;;;;;10.98;3.20;;;9.40;99.90;;;;;;5052592;28;20048;-54
2022/04/07 01:55:08;;;;;;;8.65;3.28;;;9.30;99.90;;;;;;5053478;28;20029;-53
2022/04/07 01:57:38;;;;;;;8.38;3.00;;;9.30;99.90;;;;;;5052702;28;20043;-53
2022/04/07 02:00:08;;;;;;;9.68;3.17;;;9.30;99.90;;;;;;5047116;28;20032;-52
2022/04/07 02:02:34;;;;;;;10.73;3.60;;;9.30;99.90;;;;;;5053309;28;20102;-53
2022/04/07 02:05:08;;;;;;;10.93;3.50;;;9.40;99.90;;;;;;5053290;28;20112;-53
2022/04/07 02:07:39;;;;;;;9.52;3.00;;;9.40;99.90;;;;;;5052936;28;20039;-55
2022/04/07 02:10:23;;;;;;;12.15;3.55;;;9.40;99.90;;;;;;5045393;28;20110;-51
2022/04/07 02:12:49;;;;;;;15.27;3.88;;;9.40;99.90;;;;;;5051783;28;20040;-51
2022/04/07 02:15:29;;;;;;;10.70;3.42;;;9.30;99.90;;;;;;5053056;28;20068;-53
2022/04/07 02:18:09;;;;;;;13.68;3.50;;;9.40;99.90;;;;;;5053825;28;20041;-51
2022/04/07 02:20:40;;;;;;;13.70;3.80;;;9.40;99.90;;;;;;5052494;28;20063;-51
2022/04/07 02:23:06;;;;;;;14.48;4.10;;;9.40;99.90;;;;;;5052256;28;20440;-54
2022/04/07 02:25:38;;;;;;;13.43;4.22;;;9.40;99.90;;;;;;5052761;28;20037;-53
2022/04/07 02:28:18;;;;;;;16.48;3.80;;;9.40;99.90;;;;;;5052181;28;20033;-52
2022/04/07 02:30:57;;;;;;;17.55;4.43;;;9.40;99.90;;;;;;5052184;28;20505;-54
2022/04/07 02:33:26;;;;;;;16.48;3.80;;;9.40;99.90;;;;;;5045801;28;20115;-53
2022/04/07 02:35:52;;;;;;;15.57;3.97;;;9.40;99.90;;;;;;5052177;28;20059;-51
2022/04/07 02:38:21;;;;;;;12.18;3.53;;;9.30;99.90;;;;;;5044292;28;20033;-53
2022/04/07 02:40:47;;;;;;;13.95;3.67;;;9.30;99.90;;;;;;5052456;28;20041;-53
2022/04/07 02:43:13;;;;;;;11.85;3.80;;;9.30;99.90;;;;;;5051856;28;20044;-53
2022/04/07 02:45:39;;;;;;;13.20;3.90;;;9.30;99.90;;;;;;5052520;28;20036;-51
2022/04/07 02:48:05;;;;;;;15.40;4.22;;;9.30;99.90;;;;;;5052306;28;20072;-57
2022/04/07 02:50:31;;;;;;;18.80;4.40;;;9.30;99.90;;;;;;5052895;28;20091;-55
2022/04/07 02:52:57;;;;;;;13.98;3.70;;;9.40;99.90;;;;;;5051620;28;20041;-55
2022/04/07 02:55:24;;;;;;;17.60;3.63;;;9.30;99.90;;;;;;5052028;28;20412;-54
2022/04/07 02:57:50;;;;;;;10.82;3.17;;;9.30;99.90;;;;;;5051962;28;20037;-52
2022/04/07 03:00:16;;;;;;;14.20;3.28;;;9.30;99.90;;;;;;5051602;28;20558;-55
2022/04/07 03:02:42;;;;;;;9.48;2.80;;;9.30;99.90;;;;;;5052632;28;20477;-54
2022/04/07 03:05:08;;;;;;;13.48;3.00;;;9.30;99.90;;;;;;5051832;28;20572;-53
2022/04/07 03:07:35;;;;;;;12.35;3.03;;;9.30;99.90;;;;;;5051289;28;20112;-55
2022/04/07 03:10:02;;;;;;;14.25;3.65;;;9.30;99.90;;;;;;5051845;28;20500;-54
2022/04/07 03:12:30;;;;;;;17.67;4.43;;;9.20;99.90;;;;;;5051772;28;20102;-54
2022/04/07 03:14:56;;;;;;;18.75;4.45;;;9.20;99.90;;;;;;5050981;28;20513;-54
2022/04/07 03:17:24;;;;;;;20.58;4.43;;;9.10;99.90;;;;;;5051491;28;20075;-54
2022/04/07 03:19:51;;;;;;;17.00;4.10;;;9.10;99.90;;;;;;5051701;28;20479;-54
2022/04/07 03:22:20;;;;;;;16.70;4.10;;;9.10;99.90;;;;;;5051644;28;20496;-52
2022/04/07 03:24:46;;;;;;;15.65;4.10;;;9.00;99.90;;;;;;5046161;28;20389;-53
2022/04/07 03:27:12;;;;;;;15.02;4.57;;;9.00;99.90;;;;;;5051901;28;20491;-54
2022/04/07 03:29:41;;;;;;;15.80;5.20;;;9.10;99.90;;;;;;5051631;28;20079;-54
2022/04/07 03:32:09;;;;;;;19.65;4.90;;;9.10;99.90;;;;;;5034076;28;20457;-51
2022/04/07 03:34:36;;;;;;;14.95;4.95;;;9.00;99.90;;;;;;5051603;28;20463;-54
2022/04/07 03:39:39;;;;;;;11.57;4.18;;;9.00;99.90;;;;;;5039744;28;20057;-54
2022/04/07 03:42:05;;;;;;;13.65;3.90;;;9.00;99.90;;;;;;5047605;28;20044;-53
2022/04/07 03:44:31;;;;;;;12.23;3.17;;;9.00;99.90;;;;;;5051469;28;20037;-53
2022/04/07 03:46:57;;;;;;;11.52;3.63;;;9.10;99.90;;;;;;5051445;28;20076;-54
2022/04/07 03:49:23;;;;;;;11.88;3.53;;;9.10;99.90;;;;;;5051749;28;20033;-53
2022/04/07 03:51:48;;;;;;;16.08;4.65;;;9.10;99.90;;;;;;5033211;28;20041;-52
2022/04/07 03:54:14;;;;;;;21.20;5.00;;;9.10;99.90;;;;;;5050897;28;20132;-53
2022/04/07 03:56:40;;;;;;;13.40;4.63;;;9.10;99.90;;;;;;5051173;28;20052;-53
2022/04/07 03:59:05;;;;;;;19.30;4.95;;;9.10;99.90;;;;;;5051375;28;20122;-53
2022/04/07 04:01:31;;;;;;;21.25;4.97;;;9.10;99.90;;;;;;5042720;28;20132;-53
2022/04/07 04:03:57;;;;;;;25.83;5.30;;;9.10;99.90;;;;;;5050482;28;20037;-53
2022/04/07 04:06:22;;;;;;;20.77;5.28;;;9.10;99.90;;;;;;5050994;28;20032;-53
2022/04/07 04:08:48;;;;;;;16.60;4.55;;;9.10;99.90;;;;;;5050262;28;20126;-53
2022/04/07 04:11:13;;;;;;;22.17;4.38;;;9.10;99.90;;;;;;5051065;28;20055;-54
2022/04/07 04:13:40;;;;;;;15.73;4.55;;;9.10;99.90;;;;;;5051344;28;20090;-53
2022/04/07 04:16:05;;;;;;;20.33;4.32;;;9.10;99.90;;;;;;5050601;28;20041;-52
2022/04/07 04:18:31;;;;;;;20.35;4.70;;;9.10;99.90;;;;;;5051113;28;20463;-53
2022/04/07 04:20:57;;;;;;;22.13;5.40;;;9.00;99.90;;;;;;5049690;28;20036;-53
2022/04/07 04:23:22;;;;;;;24.92;5.07;;;9.10;99.90;;;;;;5050414;28;20124;-53
2022/04/07 04:25:48;;;;;;;19.15;4.63;;;9.00;99.90;;;;;;5032998;28;20041;-53
2022/04/07 04:28:14;;;;;;;20.90;4.00;;;9.10;99.90;;;;;;5050542;28;20037;-53
2022/04/07 04:30:39;;;;;;;19.35;4.63;;;9.10;99.90;;;;;;5050808;28;20041;-53
2022/04/07 04:33:05;;;;;;;22.17;4.13;;;9.10;99.90;;;;;;5050671;28;20048;-53
2022/04/07 04:35:30;;;;;;;22.45;4.50;;;9.00;99.90;;;;;;5050306;28;20115;-53
2022/04/07 04:37:56;;;;;;;21.38;4.18;;;9.00;99.90;;;;;;5049698;28;20055;-53
2022/04/07 04:40:22;;;;;;;31.23;5.15;;;9.00;99.90;;;;;;5050740;28;20033;-53
2022/04/07 04:42:47;;;;;;;20.80;4.60;;;9.00;99.90;;;;;;5050967;28;20045;-53
2022/04/07 04:45:13;;;;;;;18.88;4.50;;;9.00;99.90;;;;;;5050116;28;20412;-53
2022/04/07 04:47:40;;;;;;;18.45;4.75;;;8.90;99.90;;;;;;5050681;28;20436;-53
2022/04/07 04:50:06;;;;;;;28.23;6.10;;;8.90;99.90;;;;;;5050009;28;20535;-53
2022/04/07 04:52:31;;;;;;;20.05;4.85;;;8.90;99.90;;;;;;5032755;28;20120;-52
2022/04/07 04:54:57;;;;;;;19.58;4.68;;;9.00;99.90;;;;;;5043680;28;20125;-51
2022/04/07 04:57:22;;;;;;;20.90;5.45;;;9.00;99.90;;;;;;5050310;28;20048;-53
2022/04/07 04:59:48;;;;;;;21.27;5.45;;;9.10;99.90;;;;;;5050486;28;20564;-53
2022/04/07 05:02:14;;;;;;;17.10;4.90;;;9.00;99.90;;;;;;5032709;28;20075;-53
2022/04/07 05:04:40;;;;;;;21.50;5.82;;;9.00;99.90;;;;;;5050707;28;20041;-54
2022/04/07 05:07:05;;;;;;;17.27;5.13;;;9.00;99.90;;;;;;5032091;28;20183;-54
2022/04/07 05:09:31;;;;;;;20.52;6.25;;;9.00;99.90;;;;;;5050289;28;20037;-52
2022/04/07 05:11:56;;;;;;;17.65;5.63;;;9.00;99.90;;;;;;5050505;28;20547;-53
2022/04/07 05:14:22;;;;;;;15.23;5.57;;;9.00;99.90;;;;;;5050450;28;20285;-54
2022/04/07 05:16:47;;;;;;;15.05;5.10;;;9.00;99.90;;;;;;5050518;28;20135;-53
2022/04/07 05:19:13;;;;;;;18.70;5.60;;;9.00;99.90;;;;;;5042838;28;20033;-54
2022/04/07 05:21:38;;;;;;;15.63;5.78;;;9.00;99.90;;;;;;5043341;28;20032;-51
2022/04/07 05:24:04;;;;;;;22.50;5.90;;;9.00;99.90;;;;;;5037395;28;20045;-52
2022/04/07 05:26:30;;;;;;;17.67;5.38;;;9.00;99.90;;;;;;5038516;28;20049;-51
2022/04/07 05:28:55;;;;;;;18.13;5.72;;;9.00;99.90;;;;;;5047612;28;20398;-53
2022/04/07 05:31:21;;;;;;;24.48;5.45;;;8.90;99.90;;;;;;5050311;28;20045;-54
2022/04/07 05:33:46;;;;;;;15.65;5.30;;;9.00;99.90;;;;;;5016077;28;20041;-50
2022/04/07 05:36:12;;;;;;;14.55;4.60;;;9.00;99.90;;;;;;5050633;28;20047;-52
2022/04/07 05:38:37;;;;;;;19.90;5.28;;;9.10;99.90;;;;;;5039955;28;20073;-55
2022/04/07 05:41:03;;;;;;;14.07;4.65;;;9.10;99.90;;;;;;5042989;28;20033;-51
2022/04/07 05:43:28;;;;;;;11.52;4.38;;;9.10;99.90;;;;;;5045815;28;20492;-54
2022/04/07 05:45:54;;;;;;;13.68;5.40;;;9.10;99.90;;;;;;5049989;28;20083;-52
2022/04/07 05:48:20;;;;;;;10.60;4.18;;;9.10;99.90;;;;;;5045538;28;20488;-53
2022/04/07 05:50:45;;;;;;;3.97;0.93;;;9.00;99.90;;;;;;5052841;28;20516;-51
2022/04/07 05:53:11;;;;;;;2.60;0.73;;;8.20;99.90;;;;;;5049337;28;20041;-49
2022/04/07 05:55:38;;;;;;;3.40;0.80;;;7.50;99.90;;;;;;5031172;28;20458;-50
2022/04/07 05:58:08;;;;;;;1.85;0.50;;;7.10;99.90;;;;;;5052912;28;20056;-52
2022/04/07 06:00:36;;;;;;;2.30;1.00;;;6.70;99.90;;;;;;5042440;28;20485;-48
2022/04/07 06:03:01;;;;;;;2.08;0.55;;;6.40;99.90;;;;;;5043550;28;20041;-49
2022/04/07 06:05:27;;;;;;;2.95;0.60;;;6.30;99.90;;;;;;5044466;28;20174;-52
2022/04/07 06:08:00;;;;;;;2.78;0.82;;;6.20;99.90;;;;;;5045406;28;20075;-54
2022/04/07 06:10:25;;;;;;;3.65;1.00;;;6.20;99.90;;;;;;5043529;28;20512;-49
2022/04/07 06:12:51;;;;;;;4.28;0.80;;;6.30;99.90;;;;;;5046308;28;20087;-50
2022/04/07 06:15:17;;;;;;;2.40;0.88;;;6.20;99.90;;;;;;5046401;28;20036;-52
2022/04/07 06:17:47;;;;;;;5.20;0.80;;;6.20;99.90;;;;;;5023072;28;20087;-54
2022/04/07 06:20:14;;;;;;;4.07;1.00;;;6.20;99.90;;;;;;5046557;28;20034;-50
2022/04/07 06:22:42;;;;;;;4.60;0.85;;;6.20;99.90;;;;;;5048990;28;20056;-54
2022/04/07 06:25:08;;;;;;;4.47;1.20;;;6.20;99.90;;;;;;5048017;28;20544;-50
2022/04/07 06:27:44;;;;;;;3.67;1.00;;;6.20;99.90;;;;;;5046857;28;20042;-51
2022/04/07 06:30:12;;;;;;;6.07;1.55;;;6.30;99.90;;;;;;5043942;28;20048;-52
2022/04/07 06:32:38;;;;;;;2.90;0.82;;;6.20;99.90;;;;;;5043840;28;20061;-52
2022/04/07 06:35:05;;;;;;;2.95;0.90;;;6.30;99.90;;;;;;5032518;28;20037;-52
2022/04/07 06:37:30;;;;;;;3.50;0.90;;;6.20;99.90;;;;;;5041310;28;20128;-49
2022/04/07 06:40:03;;;;;;;4.18;1.20;;;6.20;99.90;;;;;;5043844;28;20132;-49
2022/04/07 06:42:29;;;;;;;4.70;0.90;;;6.20;99.90;;;;;;5041559;28;20128;-52
2022/04/07 06:44:55;;;;;;;6.25;0.98;;;6.20;99.90;;;;;;5048486;28;20132;-52
2022/04/07 06:47:24;;;;;;;3.65;0.85;;;6.20;99.90;;;;;;5052368;28;20043;-50
2022/04/07 06:49:50;;;;;;;3.33;0.70;;;6.20;99.90;;;;;;5052180;28;20044;-51
2022/04/07 06:52:17;;;;;;;1.92;0.52;;;6.10;99.90;;;;;;5052487;28;20049;-54
2022/04/07 06:54:42;;;;;;;2.78;0.43;;;6.10;99.90;;;;;;5051908;28;20174;-49
2022/04/07 06:57:08;;;;;;;3.97;0.68;;;6.00;99.90;;;;;;5048562;28;20116;-52
2022/04/07 06:59:33;;;;;;;7.97;0.85;;;6.00;99.90;;;;;;5046863;28;20743;-55
2022/04/07 07:01:59;;;;;;;2.50;0.68;;;5.90;99.90;;;;;;5047799;28;20037;-51
2022/04/07 07:04:24;;;;;;;2.20;0.80;;;5.80;99.90;;;;;;5044630;28;20424;-54
2022/04/07 07:06:50;;;;;;;7.90;1.00;;;5.90;99.90;;;;;;5050006;28;20523;-53
2022/04/07 07:09:16;;;;;;;4.45;0.85;;;5.80;99.90;;;;;;5049153;28;20032;-51
2022/04/07 07:11:41;;;;;;;3.55;1.00;;;5.80;99.90;;;;;;5050506;28;20119;-51
2022/04/07 07:14:07;;;;;;;5.95;0.98;;;5.70;99.90;;;;;;5034517;28;20181;-54
2022/04/07 07:16:32;;;;;;;2.13;0.80;;;5.70;99.90;;;;;;5038400;28;20048;-52
2022/04/07 07:18:58;;;;;;;5.80;1.10;;;5.70;99.90;;;;;;5044689;28;20068;-52
2022/04/07 07:21:23;;;;;;;5.00;1.50;;;5.70;99.90;;;;;;5052001;28;20570;-52
2022/04/07 07:23:49;;;;;;;4.68;1.00;;;5.70;99.90;;;;;;5051985;28;20040;-53
2022/04/07 07:26:14;;;;;;;4.60;1.17;;;5.70;99.90;;;;;;5051451;28;20033;-52
2022/04/07 07:28:40;;;;;;;5.45;1.60;;;5.70;99.90;;;;;;5051819;28;20029;-50
2022/04/07 07:31:06;;;;;;;2.53;1.08;;;5.80;99.90;;;;;;5033929;28;20458;-52
2022/04/07 07:33:31;;;;;;;3.50;1.10;;;5.70;99.90;;;;;;5051322;28;20040;-52
2022/04/07 07:35:57;;;;;;;6.97;1.00;;;5.70;99.90;;;;;;5046380;28;20112;-54
2022/04/07 07:38:23;;;;;;;5.05;1.30;;;5.80;99.90;;;;;;5051023;28;20037;-50
2022/04/07 07:40:49;;;;;;;6.18;1.10;;;5.80;99.90;;;;;;5017457;28;20095;-52
2022/04/07 07:43:14;;;;;;;4.20;0.98;;;5.80;99.90;;;;;;5051660;28;20400;-50
2022/04/07 07:45:40;;;;;;;6.85;1.33;;;5.80;99.90;;;;;;5023398;28;20043;-52
2022/04/07 07:48:06;;;;;;;4.25;1.13;;;5.80;99.90;;;;;;5051273;28;20037;-51
2022/04/07 07:50:31;;;;;;;4.78;1.10;;;5.90;99.90;;;;;;5051650;28;20037;-50
2022/04/07 07:52:57;;;;;;;3.38;0.85;;;5.90;99.90;;;;;;5051446;28;20033;-52
2022/04/07 07:55:22;;;;;;;4.65;1.20;;;5.90;99.90;;;;;;5051294;28;20420;-52
2022/04/07 07:57:48;;;;;;;6.18;1.00;;;5.90;99.90;;;;;;5048678;28;20060;-54
2022/04/07 08:00:16;;;;;;;2.83;0.88;;;6.00;99.90;;;;;;5049654;28;20044;-52
2022/04/07 08:02:43;;;;;;;4.80;1.17;;;5.90;99.90;;;;;;5050944;28;20129;-52
2022/04/07 08:05:08;;;;;;;8.45;1.02;;;6.00;99.90;;;;;;5051264;28;20033;-54
2022/04/07 08:07:41;;;;;;;6.38;1.38;;;6.00;99.90;;;;;;5050643;28;20040;-50
2022/04/07 08:10:08;;;;;;;3.13;0.90;;;6.00;99.90;;;;;;5050120;28;20108;-52
2022/04/07 08:12:34;;;;;;;2.58;0.90;;;6.10;99.90;;;;;;5049857;28;20116;-53
2022/04/07 08:14:59;;;;;;;5.88;1.13;;;6.10;99.90;;;;;;5051370;28;20258;-52
2022/04/07 08:17:25;;;;;;;9.50;1.20;;;6.10;99.90;;;;;;5050512;28;20036;-51
2022/04/07 08:19:50;;;;;;;2.78;0.90;;;6.20;99.90;;;;;;5050953;28;20401;-52
2022/04/07 08:22:16;;;;;;;3.55;0.90;;;6.30;99.90;;;;;;5050440;28;20037;-50
2022/04/07 08:24:41;;;;;;;4.53;1.20;;;6.30;99.90;;;;;;5048920;28;20040;-51
2022/04/07 08:27:07;;;;;;;3.58;0.88;;;6.40;99.90;;;;;;5044872;28;20033;-53
2022/04/07 08:29:34;;;;;;;4.53;1.20;;;6.40;99.90;;;;;;5050843;28;20032;-52
2022/04/07 08:32:00;;;;;;;5.60;1.13;;;6.50;99.90;;;;;;5049825;28;20503;-51
2022/04/07 08:34:25;;;;;;;3.38;1.08;;;6.60;99.90;;;;;;5050780;28;20116;-52
2022/04/07 08:36:52;;;;;;;4.88;1.13;;;6.60;99.90;;;;;;5049945;28;20482;-50
2022/04/07 08:39:17;;;;;;;2.05;0.82;;;6.70;99.90;;;;;;5047559;28;20536;-51
2022/04/07 08:41:45;;;;;;;3.40;1.00;;;6.70;99.90;;;;;;5049738;28;20033;-54
2022/04/07 08:44:17;;;;;;;4.35;1.05;;;6.80;99.90;;;;;;5051108;28;20041;-52
2022/04/07 08:46:53;;;;;;;4.05;0.70;;;6.90;99.90;;;;;;5044264;28;20497;-53
2022/04/07 08:49:21;;;;;;;2.25;1.13;;;7.10;99.90;;;;;;5041426;28;20040;-53
2022/04/07 08:51:47;;;;;;;4.93;1.08;;;7.40;99.90;;;;;;5050962;28;20495;-50
2022/04/07 08:54:13;;;;;;;3.58;0.93;;;7.60;99.90;;;;;;5049832;28;20459;-51
2022/04/07 08:56:39;;;;;;;7.07;1.95;;;7.90;99.90;;;;;;5048859;28;20033;-50
2022/04/07 08:59:05;;;;;;;5.75;1.02;;;8.10;99.90;;;;;;5045393;28;20037;-52
2022/04/07 09:01:30;;;;;;;4.35;1.00;;;8.20;99.90;;;;;;5045390;28;20083;-52
2022/04/07 09:03:56;;;;;;;6.53;1.08;;;8.40;99.90;;;;;;5039155;28;20037;-49
2022/04/07 09:06:23;;;;;;;3.67;1.00;;;8.50;99.90;;;;;;5049740;28;20029;-53
2022/04/07 09:08:49;;;;;;;7.28;1.90;;;8.60;99.90;;;;;;5043998;28;20041;-52
2022/04/07 09:11:18;;;;;;;3.90;1.02;;;8.80;99.90;;;;;;5050704;28;20123;-52
2022/04/07 09:13:45;;;;;;;2.95;1.00;;;8.90;99.90;;;;;;5032651;28;20037;-53
2022/04/07 09:16:13;;;;;;;3.72;1.20;;;9.00;99.90;;;;;;5050319;28;20045;-52
2022/04/07 09:18:40;;;;;;;5.75;1.23;;;9.10;99.90;;;;;;5032292;28;20033;-54
2022/04/07 09:21:08;;;;;;;6.00;1.23;;;9.10;99.90;;;;;;5030407;28;20049;-49
2022/04/07 09:23:40;;;;;;;7.22;1.13;;;9.20;99.90;;;;;;5053637;28;20614;-50
2022/04/07 09:26:12;;;;;;;7.05;1.45;;;9.30;99.90;;;;;;5053016;28;20036;-53
2022/04/07 09:28:37;;;;;;;7.20;1.30;;;9.30;99.90;;;;;;5053891;28;20037;-53
2022/04/07 09:31:03;;;;;;;3.60;1.20;;;9.40;99.90;;;;;;5053895;28;20504;-53
2022/04/07 09:33:29;;;;;;;5.63;1.67;;;9.50;99.90;;;;;;5053931;28;20047;-54
2022/04/07 09:36:08;;;;;;;9.73;1.80;;;9.60;99.90;;;;;;5051970;28;20047;-54
2022/04/07 09:38:35;;;;;;;6.68;1.48;;;9.50;99.90;;;;;;5053728;28;20048;-52
2022/04/07 09:41:11;;;;;;;5.70;1.70;;;9.60;99.90;;;;;;5097490;22;20052;-55
2022/04/07 09:43:58;;;;;;;7.22;1.52;;;9.70;99.90;;;;;;5094194;28;20040;-56
2022/04/07 09:46:26;;;;;;;15.43;2.53;;;9.80;99.90;;;;;;5086628;28;20028;-55
2022/04/07 09:49:05;;;;;;;6.75;1.77;;;9.80;99.90;;;;;;5085296;28;20072;-54
2022/04/07 09:51:40;;;;;;;7.47;1.75;;;10.00;99.90;;;;;;5073643;28;20048;-53
2022/04/07 09:54:11;;;;;;;9.25;1.83;;;10.10;99.90;;;;;;5052514;28;20377;-55
2022/04/07 09:56:37;;;;;;;8.43;1.92;;;9.70;99.90;;;;;;5071054;28;20041;-55
2022/04/07 09:59:06;;;;;;;9.45;1.70;;;10.10;99.90;;;;;;5073126;28;20040;-55
2022/04/07 10:01:38;;;;;;;9.90;1.95;;;10.10;99.90;;;;;;5066154;28;20033;-56
2022/04/07 10:04:05;;;;;;;9.87;1.63;;;10.00;99.90;;;;;;5063354;28;20123;-54
2022/04/07 10:06:33;;;;;;;10.82;1.80;;;9.90;99.90;;;;;;5072930;28;20374;-55
2022/04/07 10:09:01;;;;;;;7.43;1.90;;;9.80;99.90;;;;;;5073203;28;20439;-55
2022/04/07 10:11:29;;;;;;;7.10;1.75;;;9.70;99.90;;;;;;5072450;28;20711;-56
2022/04/07 10:13:56;;;;;;;6.85;1.67;;;9.70;99.90;;;;;;5055123;28;20416;-54
2022/04/07 10:16:22;;;;;;;14.60;2.50;;;9.70;99.90;;;;;;5072442;28;20037;-56
2022/04/07 10:19:01;;;;;;;13.25;1.98;;;9.80;99.90;;;;;;5054728;28;20483;-56
2022/04/07 10:22:04;;;;;;;9.80;2.03;;;9.80;99.90;;;;;;5072028;28;20060;-53
2022/04/07 10:24:34;;;;;;;20.90;2.50;;;9.80;99.90;;;;;;5064757;28;20044;-52
2022/04/07 10:27:02;;;;;;;9.80;2.00;;;9.90;99.90;;;;;;5062585;28;20044;-51
2022/04/07 10:29:28;;;;;;;10.05;1.80;;;10.00;99.90;;;;;;5065495;28;20373;-53
2022/04/07 10:32:12;;;;;;;12.77;2.25;;;10.20;99.90;;;;;;5063832;28;20397;-54
2022/04/07 10:34:42;;;;;;;11.77;2.53;;;10.40;99.90;;;;;;5061656;28;20041;-55
2022/04/07 10:37:09;;;;;;;12.55;2.20;;;10.60;99.90;;;;;;5068733;28;20044;-54
2022/04/07 10:39:40;;;;;;;13.25;2.42;;;10.60;99.90;;;;;;5054564;28;20397;-52
2022/04/07 10:42:06;;;;;;;13.60;2.10;;;10.60;99.90;;;;;;5068866;28;20040;-55
2022/04/07 10:44:33;;;;;;;14.77;2.38;;;10.50;99.90;;;;;;5053516;28;20040;-56
2022/04/07 10:47:02;;;;;;;12.80;2.67;;;10.40;99.90;;;;;;5068666;28;20052;-56
2022/04/07 10:49:30;;;;;;;9.02;2.15;;;10.40;99.90;;;;;;5052673;28;20086;-55
2022/04/07 10:51:58;;;;;;;12.93;2.00;;;10.30;99.90;;;;;;5053082;28;20037;-55
2022/04/07 10:54:26;;;;;;;8.32;1.73;;;10.30;99.90;;;;;;5053263;28;20044;-56
2022/04/07 10:56:52;;;;;;;10.25;2.10;;;10.20;99.90;;;;;;5071064;28;20028;-56
2022/04/07 10:59:21;;;;;;;14.40;2.10;;;10.30;99.90;;;;;;5055122;28;20049;-54
2022/04/07 11:02:03;;;;;;;10.20;1.75;;;10.20;99.90;;;;;;5072524;28;20119;-55
2022/04/07 11:04:58;;;;;;;13.80;2.72;;;10.20;99.90;;;;;;5053013;28;20044;-54
2022/04/07 11:07:24;;;;;;;13.48;2.42;;;10.20;99.90;;;;;;5051772;28;20045;-54
2022/04/07 11:10:00;;;;;;;11.73;2.10;;;10.10;99.90;;;;;;5059001;28;20094;-56
2022/04/07 11:12:40;;;;;;;15.52;2.85;;;10.10;99.90;;;;;;5058070;28;20048;-56
2022/04/07 11:15:05;;;;;;;11.93;2.17;;;10.10;99.90;;;;;;5072177;28;20033;-55
2022/04/07 11:17:35;;;;;;;12.77;2.42;;;10.00;99.90;;;;;;5064705;28;20515;-53
2022/04/07 11:20:24;;;;;;;12.30;2.90;;;10.00;99.90;;;;;;5059855;28;20466;-52
2022/04/07 11:22:52;;;;;;;12.55;2.47;;;10.00;99.90;;;;;;5069204;28;20127;-52
2022/04/07 11:25:29;;;;;;;10.25;2.20;;;10.00;99.90;;;;;;5071682;28;20385;-53
2022/04/07 11:28:12;;;;;;;14.82;2.95;;;10.00;99.90;;;;;;5052119;28;20543;-53
2022/04/07 11:30:43;;;;;;;14.45;2.20;;;9.90;99.90;;;;;;5071943;28;20519;-53
2022/04/07 11:33:28;;;;;;;8.48;2.10;;;9.80;99.90;;;;;;5071543;28;20033;-53
2022/04/07 11:36:00;;;;;;;15.38;2.50;;;10.00;99.90;;;;;;5072390;28;20075;-53
2022/04/07 11:38:34;;;;;;;11.68;2.75;;;10.10;99.90;;;;;;5071984;28;20076;-53
2022/04/07 11:41:19;;;;;;;13.57;2.75;;;10.10;99.90;;;;;;5061754;28;20040;-54
2022/04/07 11:43:47;;;;;;;10.95;2.30;;;10.20;99.90;;;;;;5048636;28;20064;-53
2022/04/07 11:46:24;;;;;;;8.90;2.10;;;10.20;99.90;;;;;;5064984;28;20399;-52
2022/04/07 11:48:51;;;;;;;10.00;2.40;;;10.30;99.90;;;;;;5064051;28;20041;-55
2022/04/07 11:51:17;;;;;;;9.95;2.10;;;10.20;99.90;;;;;;5071192;28;20047;-56
2022/04/07 11:53:52;;;;;;;15.55;2.53;;;10.30;99.90;;;;;;5071636;28;20037;-56
2022/04/07 11:56:20;;;;;;;18.58;2.30;;;10.50;99.90;;;;;;5070875;28;20036;-56
2022/04/07 11:59:07;;;;;;;9.05;2.38;;;10.40;99.90;;;;;;5071330;28;20037;-56
2022/04/07 12:01:40;;;;;;;14.93;3.55;;;10.50;99.90;;;;;;5070824;28;20036;-56
2022/04/07 12:04:09;;;;;;;12.68;2.17;;;10.50;99.90;;;;;;5071558;28;20085;-55
2022/04/07 12:06:36;;;;;;;9.35;2.15;;;10.60;99.90;;;;;;5053894;28;20051;-56
2022/04/07 12:09:04;;;;;;;13.10;2.20;;;10.60;99.90;;;;;;5071651;28;20040;-53
2022/04/07 12:11:32;;;;;;;15.52;2.45;;;10.40;99.90;;;;;;5071711;28;20120;-55
2022/04/07 12:14:00;;;;;;;11.75;2.40;;;10.40;99.90;;;;;;5071517;28;20044;-55
2022/04/07 12:16:26;;;;;;;13.68;2.90;;;10.30;99.90;;;;;;5070894;28;20119;-56
2022/04/07 12:18:56;;;;;;;14.80;2.55;;;10.30;99.90;;;;;;5064644;28;20050;-55
2022/04/07 12:21:23;;;;;;;13.82;2.35;;;10.40;99.90;;;;;;5071542;28;20396;-56
2022/04/07 12:24:04;;;;;;;16.63;2.47;;;10.50;99.90;;;;;;5071442;28;20037;-56
2022/04/07 12:26:41;;;;;;;13.63;2.28;;;10.60;99.90;;;;;;5071269;28;20420;-56
2022/04/07 12:29:08;;;;;;;12.68;1.80;;;10.90;99.90;;;;;;5070598;28;20037;-55
2022/04/07 12:31:33;;;;;;;13.02;2.20;;;11.00;99.90;;;;;;5070806;28;20040;-55
2022/04/07 12:34:28;;;;;;;7.95;1.98;;;11.10;99.90;;;;;;5071082;28;20411;-56
2022/04/07 12:36:55;;;;;;;13.60;2.33;;;11.20;99.90;;;;;;5061472;28;20113;-55
2022/04/07 12:39:20;;;;;;;9.95;2.00;;;11.10;99.90;;;;;;5068989;28;21821;-54
2022/04/07 12:41:55;;;;;;;10.15;2.35;;;11.10;99.90;;;;;;5067575;28;20066;-56
2022/04/07 12:44:23;;;;;;;8.93;2.53;;;11.20;99.90;;;;;;5065331;28;20447;-54
2022/04/07 12:46:52;;;;;;;9.95;2.00;;;11.30;99.90;;;;;;5054379;28;20127;-56
2022/04/07 12:49:24;;;;;;;15.48;2.30;;;11.20;99.60;;;;;;5048812;28;20032;-54
2022/04/07 12:52:08;;;;;;;7.88;2.83;;;11.10;99.90;;;;;;5067276;28;20369;-53
2022/04/07 12:54:34;;;;;;;11.82;2.20;;;11.10;99.90;;;;;;5064463;28;20058;-56
2022/04/07 12:57:07;;;;;;;10.32;2.60;;;11.10;99.60;;;;;;5066750;28;20040;-55
2022/04/07 12:59:32;;;;;;;9.13;2.20;;;11.00;99.90;;;;;;5065305;28;20072;-55